Terminal Aerodrome Forecast
Issued by NWS

Home | Current Version | Previous Version | Graphics & Text | Print | Product List | Glossary On
Versions: 1 2 3 4 5 6 7 8 9 10 11 12 13 14 15 16 17 18 19
000
FTUS43 KICT 220922 AAA
TAFHUT
TAF AMD
KHUT 220922Z 2209/2306 36013KT P6SM BKN050
      TEMPO 2209/2212 6SM -RA BR BKN025
     FM221200 36015G22KT 6SM BR OVC025
     FM221400 35016G23KT P6SM SCT150
     FM230000 33008KT P6SM SKC=

USA.gov is the U.S. government's official web portal to all federal, state and local government web resources and services.